Eduardo Machado

Scout - Flamengo
5 Dez 2027
Sonntag
Verarbeitung

Persönlichkeit

Anpassungsfähigkeit (6) Ehrgeiz (14) Kontroverse (9) Loyalität (11) Druck (4) Professionalität (2) Fairness (12) Temperament (11)

Profil

Trainerstil Demokratisch
Lizenz Kontinentale Pro
Entschlossenheit 16
Menschenführung 9
Motivation 6
Disziplin 7
Arbeitszufriedenheit
100%
Ermüdung
0%
Rolle Scout
Gehalt 113.3K p/W
Vertrag 14.03.2028

Leistung

Verhalten Gut
Trainingseffektivität
54%
Spielerentwicklung
55%
Verletzungsprävention
80%
Taktische Umsetzung
60%

Letzte Ereignisse

Spieler begutachtet jetzt
Nahm an einer Scouting-Besprechung teil jetzt
Nahm an einer Scouting-Besprechung teil jetzt
Empfahl ein Transferziel jetzt
Empfahl ein Transferziel jetzt
Empfahl ein Transferziel jetzt
Spieler begutachtet jetzt
Spieler begutachtet 7T her

Aktuell beobachtet

210
Spieler Verein Status Fähigkeit Vertrauen Beobachtet Zuletzt beobachtet Letzte Stimme
Caoimhin Kelleher Brentford Aktiv 154 / 155 40% 37 01.12.2027 -
Giorgi Mamardashvili Manchester City Aktiv 171 / 171 40% 31 01.12.2027 -
Filip Jörgensen Chelsea Aktiv 166 / 153 40% 19 01.12.2027 -
Marcos Antonio Flamengo Verhandlung 138 / 138 68% 1 01.12.2027 -
Yuri Alberto Flamengo Verhandlung 140 / 141 67% 1 01.12.2027 -
Vanja Milinković-Savić Napoli Aktiv 158 / 157 40% 22 29.11.2027 -
Diogo Costa Inter Aktiv 162 / 170 40% 10 29.11.2027 -
Dean Henderson Crystal Palace Aktiv 156 / 162 40% 26 28.11.2027 -
Gianluigi Donnarumma Inter Aktiv 174 / 181 40% 37 28.11.2027 -
Robert Sánchez Chelsea Aktiv 158 / 157 40% 22 28.11.2027 -
Carl Rushworth Sunderland Aktiv 152 / 149 40% 8 27.11.2027 -
Bart Verbruggen Newcastle United Aktiv 170 / 167 40% 27 26.11.2027 -
Bremer Juventus Aktiv 166 / 164 40% 14 22.11.2027 -
Anatolii Trubin Aston Villa Aktiv 163 / 158 40% 6 22.11.2027 -
Piero Hincapié Arsenal Aktiv 155 / 162 40% 2 22.11.2027 -
Tino Livramento Newcastle United Aktiv 168 / 155 40% 3 22.11.2027 -
Moisés Caicedo Chelsea Aktiv 177 / 172 40% 6 21.11.2027 -
Marc Guéhi Manchester City Aktiv 172 / 167 40% 3 21.11.2027 -
Óscar Mingueza Crystal Palace Aktiv 158 / 162 40% 2 21.11.2027 -
Lisandro Martínez West Ham United Aktiv 155 / 153 40% 4 19.11.2027 -
Conor Bradley Bristol City Aktiv 153 / 159 40% 2 19.11.2027 -
Éderson Atalanta Aktiv 156 / 167 40% 10 17.11.2027 -
Roméo Lavia Chelsea Aktiv 154 / 154 40% 3 17.11.2027 -
Alexis Mac Allister Liverpool Aktiv 174 / 159 40% 8 16.11.2027 -
Declan Rice Arsenal Aktiv 184 / 194 40% 3 16.11.2027 -
Gabriel Arsenal Aktiv 172 / 180 40% 8 15.11.2027 -
Reece James Chelsea Aktiv 177 / 173 40% 2 15.11.2027 -
Alex Meret Napoli Aktiv 153 / 154 40% 32 11.11.2027 -
Exequiel Palacios Ipswich Town Aktiv 166 / 170 40% 17 10.11.2027 -
Youri Tielemans Manchester United Aktiv 170 / 155 40% 4 10.11.2027 -
Senne Lammens AS Roma Aktiv 158 / 157 40% 30 08.11.2027 -
Adam Wharton Crystal Palace Aktiv 157 / 157 40% 10 05.11.2027 -
Murillo Nottingham Forest Aktiv 162 / 158 40% 6 05.11.2027 -
Marvin Keller Tottenham Aktiv 155 / 155 40% 5 05.11.2027 -
Michele Di Gregorio Juventus Aktiv 152 / 147 40% 17 03.11.2027 -
Enzo Fernández Manchester City Aktiv 175 / 173 40% 6 01.11.2027 -
Sandro Tonali Tottenham Aktiv 175 / 182 40% 4 01.11.2027 -
Nico González Manchester United Aktiv 172 / 168 40% 1 01.11.2027 -
Carlos Augusto Inter Aktiv 150 / 155 40% 4 29.10.2027 -
Jakub Kiwior Brighton Aktiv 154 / 170 40% 4 29.10.2027 -
Alejandro Balde Barcelona Aktiv 159 / 170 40% 1 29.10.2027 -
Zion Suzuki Aston Villa Aktiv 141 / 157 40% 4 20.10.2027 -
Quinten Timber Crystal Palace Aktiv 150 / 158 40% 2 16.10.2027 -
Bruno Guimarães Arsenal Aktiv 172 / 166 40% 3 16.10.2027 -
Martín Zubimendi Arsenal Aktiv 171 / 169 40% 2 11.10.2027 -
Tyler Adams Bournemouth Aktiv 161 / 165 40% 1 11.10.2027 -
Christos Mandas Lazio Aktiv 139 / 154 40% 1 08.10.2027 -
Ousmane Diomande Nottingham Forest Aktiv 162 / 155 40% 3 07.10.2027 -
Boubacar Kamara Aston Villa Aktiv 169 / 161 40% 4 02.10.2027 -
Guglielmo Vicario Tottenham Aktiv 154 / 147 40% 10 27.09.2027 -
Dominik Szoboszlai Liverpool Aktiv 174 / 161 40% 2 23.09.2027 -
Joško Gvardiol Manchester City Aktiv 171 / 165 40% 4 14.09.2027 -
Matheus Nunes Manchester City Aktiv 156 / 171 40% 2 10.09.2027 -
Matthijs de Ligt Manchester United Aktiv 159 / 155 40% 4 08.09.2027 -
William Saliba Arsenal Aktiv 177 / 175 40% 1 05.09.2027 -
Wesley Fofana Chelsea Aktiv 173 / 168 40% 5 03.09.2027 -
Sven Botman Newcastle United Aktiv 165 / 163 40% 1 29.08.2027 -
Abdukodir Khusanov Coventry City Aktiv 152 / 165 40% 1 29.08.2027 -
Dodo Fiorentina Aktiv 146 / 156 40% 2 25.08.2027 -
Julian Eyestone Brentford Aktiv 120 / 124 40% 1 21.08.2027 -
Federico Gatti Juventus Aktiv 160 / 143 40% 1 17.08.2027 -
Oumar Solet Udinese Aktiv 152 / 151 40% 1 17.08.2027 -
Curtis Jones Inter Aktiv 163 / 159 40% 2 16.08.2027 -
Evan N'Dicka AS Roma Aktiv 154 / 169 40% 4 16.08.2027 -
Mario Gila AC Milan Aktiv 158 / 148 40% 3 13.08.2027 -
Antonín Kinský Wolverhampton Aktiv 139 / 152 40% 3 13.08.2027 -
Nuno Tavares Lazio Aktiv 153 / 142 40% 1 13.08.2027 -
Ferdi Kadıoğlu Stoke City Aktiv 161 / 158 40% 3 01.08.2027 -
Aaron Ramsdale Southampton Aktiv 139 / 147 40% 1 29.07.2027 -
Wesley AS Roma Aktiv 142 / 147 40% 4 28.07.2027 -
Tommaso Martinelli Fiorentina Aktiv 126 / 137 40% 1 28.07.2027 -
Mike Penders Chelsea Aktiv 136 / 145 40% 2 19.07.2027 -
Jeremie Frimpong Liverpool Aktiv 165 / 160 40% 2 17.07.2027 -
Miloš Kerkez Liverpool Aktiv 163 / 169 40% 2 03.07.2027 -
Noussair Mazraoui Manchester United Aktiv 158 / 160 40% 1 03.07.2027 -
Elia Caprile Cagliari Aktiv 139 / 155 40% 12 30.06.2027 -
Lukáš Horníček Liverpool Aktiv 139 / 140 40% 10 28.06.2027 -
Carlos Vinícius Grêmio Aktiv 126 / 135 65% 1 21.06.2027 Befürworten
James Trafford Leeds United Aktiv 137 / 158 40% 5 19.06.2027 -
Mohammed Kudus Tottenham Aktiv 149 / 162 40% 2 17.06.2027 -
Kenan Yıldız Juventus Aktiv 157 / 166 40% 3 17.06.2027 -
Antoine Semenyo Manchester City Aktiv 151 / 168 40% 1 17.06.2027 -
Diego Mascardi SC Freiburg Aktiv 123 / 133 40% 1 11.06.2027 -
Justin Bijlow Genoa Aktiv 138 / 140 40% 10 08.06.2027 -
Đorđe Petrović Arsenal Aktiv 140 / 146 40% 6 06.06.2027 -
Paulinho Stade Rennais Aktiv 140 / 140 68% 1 01.06.2027 Befürworten
Luiz Henrique Flamengo Aktiv 142 / 143 68% 1 01.06.2027 Befürworten
Florian Wirtz Liverpool Aktiv 181 / 171 40% 1 31.05.2027 -
Maduka Okoye Udinese Aktiv 152 / 144 40% 2 30.05.2027 -
Ismaïla Sarr Crystal Palace Aktiv 162 / 147 40% 2 29.05.2027 -
Jean-Philippe Mateta Crystal Palace Aktiv 145 / 144 40% 3 29.05.2027 -
Dušan Vlahović Juventus Aktiv 159 / 169 40% 2 29.05.2027 -
Mateo Retegui Lazio Aktiv 171 / 146 40% 5 27.05.2027 -
Radek Vítek Middlesbrough Aktiv 141 / 137 40% 7 25.05.2027 -
Kauã Santos Werder Bremen Aktiv 147 / 135 40% 1 25.05.2027 -
Arijanet Murić Sassuolo Aktiv 148 / 151 40% 1 24.05.2027 -
Phil Foden Manchester City Aktiv 169 / 175 40% 1 23.05.2027 -
Mason Mount Manchester United Aktiv 154 / 155 40% 1 23.05.2027 -
Randal Kolo Muani Juventus Aktiv 154 / 147 40% 3 21.05.2027 -
Matheus Cunha Manchester United Aktiv 157 / 165 40% 2 21.05.2027 -
Gonçalo Ramos AC Milan Aktiv 162 / 147 40% 6 20.05.2027 -
Marcus Thuram Inter Aktiv 165 / 166 40% 2 20.05.2027 -
Alexander Nübel Besiktas Aktiv 134 / 140 40% 7 17.05.2027 -
Christian Pulisic AC Milan Aktiv 173 / 161 40% 2 16.05.2027 -
Bradley Barcola Liverpool Aktiv 174 / 160 40% 1 16.05.2027 -
Jarrod Bowen West Ham United Aktiv 152 / 155 40% 26 13.05.2027 -
Stanislav Agkatsev CSKA Moscow Aktiv 145 / 142 40% 2 13.05.2027 -
Alexander Isak Liverpool Aktiv 177 / 184 40% 3 13.05.2027 -
João Pedro Chelsea Aktiv 166 / 149 40% 1 13.05.2027 -
Nicolas Jackson Aston Villa Aktiv 150 / 152 40% 1 12.05.2027 -
Bryan Mbeumo Manchester United Aktiv 167 / 156 40% 2 09.05.2027 -
Ryan Gravenberch Liverpool Aktiv 157 / 161 40% 1 07.05.2027 -
Tomoki Hayakawa Kashima Antlers Aktiv 128 / 136 40% 6 05.05.2027 -
Cody Gakpo Liverpool Aktiv 149 / 156 40% 1 01.05.2027 -
Hugo Ekitiké Liverpool Aktiv 170 / 155 40% 1 19.04.2027 -
Evanilson Bournemouth Aktiv 152 / 148 40% 1 17.04.2027 -
Alessandro Buongiorno Udinese Aktiv 145 / 158 40% 2 07.04.2027 -
Benjamin White Arsenal Aktiv 147 / 163 40% 5 07.04.2027 -
Jindřich Staněk Slavia Prague Aktiv 148 / 143 40% 2 03.04.2027 -
Donyell Malen AS Roma Aktiv 158 / 148 40% 10 02.04.2027 -
Dominic Solanke Tottenham Aktiv 158 / 136 40% 5 02.04.2027 -
Álvaro Fernández Villarreal Aktiv 128 / 139 40% 1 02.04.2027 -
Samu Aghehowa Bayer Leverkusen Aktiv 151 / 150 40% 2 30.03.2027 -
Silas Huber Zurich Aktiv 125 / 114 40% 1 30.03.2027 -
Luis Suárez Sporting CP Aktiv 166 / 160 40% 28 29.03.2027 -
Oscar Rangel Braga Aktiv 143 / 143 40% 1 21.03.2027 -
Francesco Pio Esposito Inter Aktiv 136 / 139 40% 5 14.03.2027 -
Mathys Tel Tottenham Aktiv 132 / 144 40% 3 12.03.2027 -
Kaoru Mitoma Brighton Aktiv 158 / 155 40% 1 11.03.2027 -
Mateus Mané Liverpool Aktiv 130 / 148 40% 2 10.03.2027 -
Marcus Rashford Manchester United Aktiv 159 / 149 40% 18 09.03.2027 -
Sidiki Chérif Coventry City Aktiv 130 / 131 40% 1 09.03.2027 -
Pau Torres Aston Villa Aktiv 164 / 156 40% 1 07.03.2027 -
Fabián Manchester City Aktiv 155 / 157 40% 4 01.03.2027 -
Gianluca Mancini AS Roma Aktiv 151 / 159 40% 2 24.02.2027 -
Jaydee Canvot Crystal Palace Aktiv 139 / 145 40% 1 24.02.2027 -
Rúben Neves Al-Hilal Aktiv 150 / 157 40% 1 23.02.2027 -
Trevoh Chalobah Como Aktiv 143 / 143 40% 1 23.02.2027 -
Manuel Locatelli Juventus Aktiv 158 / 142 40% 2 21.02.2027 -
Kauã Elias Club Brugge Aktiv 126 / 143 40% 2 20.02.2027 -
David Neres Napoli Aktiv 145 / 150 40% 1 14.02.2027 -
Vitor Roque Palmeiras Aktiv 146 / 140 40% 1 12.02.2027 Mehr Infos nötig
Davinson Sánchez Galatasaray Aktiv 142 / 151 40% 2 07.02.2027 -
Veljko Milosavljević Newcastle United Aktiv 129 / 131 40% 1 01.02.2027 -
Weston McKennie Juventus Aktiv 143 / 164 40% 2 31.01.2027 -
Alessandro Bastoni Inter Aktiv 162 / 153 40% 3 28.01.2027 -
Ibrahim Maza Bayern Munich Aktiv 141 / 148 40% 1 28.01.2027 -
Antoni Milambo Brentford Aktiv 146 / 133 40% 1 28.01.2027 -
Lucas Bergvall Tottenham Aktiv 148 / 152 40% 2 26.01.2027 -
Tyrick Mitchell Anderlecht Aktiv 139 / 158 40% 3 22.01.2027 -
Julián Quiñones Al-Qadisiyah Aktiv 136 / 133 40% 8 20.01.2027 -
Dodi Lukébakio Benfica Aktiv 135 / 151 40% 4 16.01.2027 -
Ivan Toney Brighton Aktiv 139 / 147 40% 2 15.01.2027 -
Caleb Yirenkyi Coventry City Aktiv 123 / 140 40% 1 12.01.2027 -
Victor Froholdt Porto Aktiv 148 / 152 40% 3 11.01.2027 -
Matty Cash Aston Villa Aktiv 150 / 143 40% 1 08.01.2027 -
Jack Hinshelwood Brighton Aktiv 131 / 159 40% 1 17.12.2026 -
Igor Burnley Aktiv 136 / 150 40% 2 29.11.2026 -
Luc François Tours Aktiv 161 / 165 40% 2 28.11.2026 -
Wendel Zenit Aktiv 148 / 134 40% 2 23.11.2026 -
Maxence Lacroix Chelsea Aktiv 150 / 137 40% 1 23.11.2026 -
Xaver Schlager Nottingham Forest Aktiv 155 / 139 40% 3 15.11.2026 -
Ignacio Perruzzi San Lorenzo Aktiv 128 / 122 40% 1 15.11.2026 -
Lewis Hall Newcastle United Aktiv 153 / 151 40% 1 13.11.2026 -
Aaron Hickey Brentford Aktiv 142 / 153 40% 3 09.11.2026 -
Noah Sadiki Sunderland Aktiv 155 / 141 40% 1 07.11.2026 -
Tomás Araújo Benfica Aktiv 148 / 133 40% 2 06.11.2026 -
Elis Bishesari IFK Goteborg Aktiv 105 / 119 40% 1 02.11.2026 -
Victor Osimhen PSV Aktiv 151 / 157 40% 8 31.10.2026 -
Barış Alper Yılmaz Galatasaray Aktiv 140 / 144 40% 3 31.10.2026 -
Georginio Rutter Olympique Lyonnais Aktiv 136 / 154 40% 1 27.10.2026 -
Alberto Costa Porto Aktiv 135 / 133 40% 1 27.10.2026 -
Cheick Doucouré Crystal Palace Aktiv 154 / 151 40% 1 27.10.2026 -
Jan Paul van Hecke Tottenham Aktiv 148 / 166 40% 4 23.10.2026 -
Matvey Safonov Paris Saint-Germain Aktiv 158 / 147 40% 2 20.10.2026 -
Kevin Schade Brentford Aktiv 158 / 138 40% 2 20.10.2026 -
Ayoub Oufkir AZ Aktiv 120 / 135 40% 1 11.10.2026 -
Alex Amaral Porto Aktiv 155 / 156 40% 1 09.10.2026 -
André Wolverhampton Aktiv 135 / 143 40% 1 09.10.2026 -
Keane Lewis-Potter Brentford Aktiv 149 / 147 40% 1 07.10.2026 -
Ethan Ampadu Leeds United Aktiv 141 / 148 40% 1 07.10.2026 -
Marcos Senesi Tottenham Aktiv 134 / 153 40% 1 06.10.2026 -
Sindre Walle Egeli Ipswich Town Aktiv 137 / 144 40% 1 05.10.2026 -
Luis Malagón Club America Aktiv 144 / 144 40% 2 02.10.2026 -
Alan Varela Porto Aktiv 136 / 148 40% 2 28.09.2026 -
Gabriel Sara Galatasaray Aktiv 132 / 141 40% 1 26.09.2026 -
Gabriel Gudmundsson Leeds United Aktiv 131 / 135 40% 1 20.09.2026 -
Nacer Mertens KV Oostende Aktiv 132 / 136 40% 1 20.09.2026 -
Gianluca Scamacca Atalanta Aktiv 144 / 143 40% 1 20.09.2026 -
Rasmus Højlund Napoli Aktiv 155 / 160 40% 2 18.09.2026 -
Yehor Yarmoliuk Brentford Aktiv 134 / 159 40% 1 13.09.2026 -
João Félix Ajax Aktiv 145 / 142 40% 3 09.09.2026 -
Assane Diao Fiorentina Aktiv 151 / 152 40% 2 09.09.2026 -
Christian Ramirez Veracruz Aktiv 137 / 130 40% 1 03.09.2026 -
Juanlu Bournemouth Aktiv 130 / 148 40% 1 30.08.2026 -
Dominik Greif Stade Brestois Aktiv 132 / 137 40% 2 28.08.2026 -
Ian Maatsen Aston Villa Aktiv 135 / 160 40% 1 23.08.2026 -
Federico Chiesa Liverpool Aktiv 142 / 145 40% 1 18.08.2026 -
Ilyas Ansah Hull City Aktiv 115 / 135 40% 1 18.08.2026 -
Olivier Boscagli Brighton Aktiv 152 / 140 40% 1 17.08.2026 -
Joe Gomez Liverpool Aktiv 152 / 159 40% 1 17.08.2026 -
Ibrahim Sangaré Nottingham Forest Aktiv 150 / 149 40% 1 16.08.2026 -
Pierce Charles Manchester City Aktiv 131 / 113 40% 1 14.08.2026 -
Guillaume Restes Toulouse FC Aktiv 124 / 145 40% 1 14.08.2026 -
Gonçalo Inácio Sporting CP Aktiv 133 / 136 40% 1 11.08.2026 -
James Garner Everton Aktiv 151 / 140 40% 1 11.08.2026 -
Gavi Barcelona Aktiv 149 / 164 40% 1 09.08.2026 -
Robin Le Normand Atlético Madrid Aktiv 140 / 139 40% 1 09.08.2026 -
Takefusa Kubo Real Sociedad Aktiv 159 / 162 40% 2 06.08.2026 -
Mikel Oyarzábal Real Sociedad Aktiv 169 / 156 40% 1 05.08.2026 -